Plumas, Canada
Current Conditions -  °F | °C
As of 6:00 PM on Saturday 22 Nov 2014 (Local Time) from CYBR Reporting Station
Haze Haze  
Wind Chill: 15°   Ceiling: 200
Heat Index: 27°   Visibility: 0.75mi
Dew Point: 25°   Wind: 15mph
Humidity: 93%   Direction: 90°E
Pressure: 29.34"   Gusts: NA
Location:  50.38°N, 99.08°W
Report Text: CYBR 230000Z 09013KT 3/4SM BR OVC002 M03/M04 A2934 RMK FG5ST3 PRESFR SLP959
Loading
Personal Weather Stations






























Interactive Weather Map New forecast layout! Learn more

10-Day Weather Forecast

Advertisements
Track Severe Weather on mobile